Clearbrook, Washington
Current Conditions -  °F | °C
As of 2:00 PM on Sunday 21 Dec 2014 (Local Time) from CYXX Reporting Station
Broken Clouds Broken Clouds  
Wind Chill: 10°   Ceiling: 10000
Heat Index: 10°   Visibility: 20mi
Dew Point:   Wind: 13mph
Humidity: 87%   Direction: 200°SSW
Pressure: 29.93"   Gusts: NA
Location:  48.9612°N, 122.12°W
Report Text: CYXX 212200Z 20011KT 20SM FEW025 SCT050 BKN100 BKN220 10/08 A2993 RMK SC1SC3AC1CI2 SLP137
Loading
Personal Weather Stations






























Interactive Weather Map New forecast layout! Learn more

10-Day Weather Forecast

Advertisements
Track Severe Weather on mobile